Impacts METAR Board
IDs:

KLAS - Las Vegas/McCarran I, NV, US

Updated at: 2200 UTC 25 May 2018
Potential Impact None Slight Moderate High
Time 25/10Z 25/11Z 25/12Z 25/13Z 25/14Z 25/15Z 25/16Z 25/17Z 25/18Z 25/19Z 25/20Z 25/21Z 25/22Z
Temp76 74 74 73 75 78 80 83 85 87 89 90 90
Dewpt43 44 44 44 43 43 41 39 33 31 28 26 26
Altim29.90 29.90 29.90 29.91 29.92 29.92 29.92 29.92 29.91 29.89 29.87 29.86 29.84
VIS10 10 10 10 10 10 10 10 10 10 10 10 10
CIG-- -- -- -- -- -- -- -- -- -- -- -- --
CoverCLRCLRCLRCLRCLRCLRCLRCLRFEWFEWFEWFEWFEW
FltCatVFRVFRVFRVFRVFRVFRVFRVFRVFRVFRVFRVFRVFR
WX--------------------------
WDir200019018017000110220190210200200
WSpd3 0 4 4 4 6 4 7 10 10 11 16 10
WGst-- -- -- -- -- -- -- -- -- 21 24 28 20
Raw hourly METARs
KLAS 250956Z 20003KT 10SM CLR 24/06 A2990 RMK AO2 SLP099 T02440061
KLAS 251056Z 00000KT 10SM CLR 23/07 A2990 RMK AO2 SLP101 T02330067
KLAS 251156Z 19004KT 10SM CLR 23/07 A2990 RMK AO2 SLP100 T02330067 10278 20228 50002
KLAS 251256Z 18004KT 10SM CLR 23/07 A2991 RMK AO2 SLP103 T02280067
KLAS 251356Z 17004KT 10SM CLR 24/06 A2992 RMK AO2 SLP107 T02390061
KLAS 251456Z VRB06KT 10SM CLR 26/06 A2992 RMK AO2 SLP108 T02560061 51008
KLAS 251556Z VRB04KT 10SM CLR 27/05 A2992 RMK AO2 SLP108 T02670050
KLAS 251656Z 11007KT 10SM CLR 28/04 A2992 RMK AO2 SLP105 T02830039
KLAS 251756Z 22010KT 10SM FEW130 29/01 A2991 RMK AO2 SLP102 T02940006 10294 20228 58005
KLAS 251856Z 19010G21KT 10SM FEW130 31/M01 A2989 RMK AO2 SLP097 T03061006
KLAS 251956Z 21011G24KT 10SM FEW130 32/M02 A2987 RMK AO2 SLP089 T03171022
KLAS 252056Z 20016G28KT 10SM FEW130 32/M03 A2986 RMK AO2 PK WND 22028/2053 SLP084 T03221033 58017
KLAS 252156Z 20010G20KT 160V240 10SM FEW130 32/M03 A2984 RMK AO2 SLP080 T03221033



Page loaded:  22:23 UTC  |   03:23 PM Pacific  |   04:23 PM Mountain  |   05:23 PM Central  |   06:23 PM Eastern

 

ADVISORIES

FORECASTS

FORECASTS

OBSERVATIONS

USER TOOLS

ABOUT US